createdAt,value
2019-03-04T00:00:16.027Z,99.90
2019-03-04T00:02:47.103Z,99.90
2019-03-04T00:05:16.604Z,99.90
2019-03-04T00:07:46.084Z,99.90
2019-03-04T00:10:15.556Z,99.90
2019-03-04T00:12:45.016Z,99.90
2019-03-04T00:15:14.587Z,99.90
2019-03-04T00:17:44.437Z,99.90
2019-03-04T00:20:13.943Z,99.90
2019-03-04T00:22:43.378Z,99.90
2019-03-04T00:25:12.883Z,99.90
2019-03-04T00:27:42.327Z,99.90
2019-03-04T00:30:12.352Z,99.90
2019-03-04T00:32:41.840Z,99.90
2019-03-04T00:35:11.309Z,99.90
2019-03-04T00:37:40.861Z,99.90
2019-03-04T00:40:15.150Z,99.90
2019-03-04T00:42:44.603Z,99.90
2019-03-04T00:45:14.826Z,99.90
2019-03-04T00:47:44.279Z,99.90
2019-03-04T00:50:16.667Z,99.90
2019-03-04T00:52:46.119Z,99.90
2019-03-04T00:55:16.875Z,99.90
2019-03-04T00:57:46.354Z,99.90
2019-03-04T01:00:18.511Z,99.90
2019-03-04T01:02:48.037Z,99.90
2019-03-04T01:05:18.579Z,99.90
2019-03-04T01:07:48.302Z,99.90
2019-03-04T01:10:18.149Z,99.90
2019-03-04T01:12:47.654Z,99.90
2019-03-04T01:15:22.580Z,99.90
2019-03-04T01:17:52.017Z,99.90
2019-03-04T01:20:21.495Z,99.90
2019-03-04T01:22:50.939Z,99.90
2019-03-04T01:25:20.751Z,99.90
2019-03-04T01:27:50.236Z,99.90
2019-03-04T01:30:23.752Z,99.90
2019-03-04T01:32:53.776Z,99.90
2019-03-04T01:35:23.259Z,99.90
2019-03-04T01:37:52.715Z,99.90
2019-03-04T01:40:23.527Z,99.90
2019-03-04T01:42:52.978Z,99.90
2019-03-04T01:45:22.446Z,99.90
2019-03-04T01:47:51.906Z,99.90
2019-03-04T01:50:21.379Z,99.90
2019-03-04T01:52:50.839Z,99.90
2019-03-04T01:55:20.884Z,99.90
2019-03-04T01:57:50.339Z,99.90
2019-03-04T02:00:24.747Z,99.90
2019-03-04T02:02:54.232Z,99.90
2019-03-04T02:05:24.738Z,99.90
2019-03-04T02:07:54.192Z,99.90
2019-03-04T02:10:24.742Z,99.90
2019-03-04T02:12:55.269Z,99.90
2019-03-04T02:15:24.742Z,99.90
2019-03-04T02:17:54.194Z,99.90
2019-03-04T02:20:23.683Z,99.90
2019-03-04T02:22:53.157Z,99.90
2019-03-04T02:25:43.556Z,99.90
2019-03-04T02:28:13.011Z,99.90
2019-03-04T02:30:42.492Z,99.90
2019-03-04T02:33:11.957Z,99.90
2019-03-04T02:35:41.428Z,99.90
2019-03-04T02:38:10.890Z,99.90
2019-03-04T02:40:52.832Z,99.90
2019-03-04T02:43:22.412Z,99.90
2019-03-04T02:45:51.888Z,99.90
2019-03-04T02:48:21.343Z,99.90
2019-03-04T02:50:50.820Z,99.90
2019-03-04T02:53:20.278Z,99.90
2019-03-04T02:55:49.759Z,99.90
2019-03-04T02:58:20.279Z,99.90
2019-03-04T03:00:49.766Z,99.90
2019-03-04T03:03:19.242Z,99.90
2019-03-04T03:05:48.715Z,99.90
2019-03-04T03:08:18.240Z,99.90
2019-03-04T03:10:47.722Z,99.90
2019-03-04T03:13:17.343Z,99.90
2019-03-04T03:15:46.840Z,99.90
2019-03-04T03:18:16.310Z,99.90
2019-03-04T03:20:45.814Z,99.90
2019-03-04T03:23:15.284Z,99.90
2019-03-04T03:25:44.830Z,99.90
2019-03-04T03:28:14.313Z,99.90
2019-03-04T03:30:44.857Z,99.90
2019-03-04T03:33:14.338Z,99.90
2019-03-04T03:35:43.814Z,99.90
2019-03-04T03:38:13.261Z,99.90
2019-03-04T03:40:42.763Z,99.90
2019-03-04T03:43:12.205Z,99.90
2019-03-04T03:45:41.667Z,99.90
2019-03-04T03:48:11.139Z,99.90
2019-03-04T03:50:40.645Z,99.90
2019-03-04T03:53:10.103Z,99.90
2019-03-04T03:55:39.576Z,99.90
2019-03-04T03:58:09.055Z,99.90
2019-03-04T04:00:38.535Z,99.90
2019-03-04T04:03:08.015Z,99.90
2019-03-04T04:05:37.563Z,99.90
2019-03-04T04:08:07.028Z,99.90
2019-03-04T04:10:36.483Z,99.90
2019-03-04T04:13:05.992Z,99.90
2019-03-04T04:15:35.454Z,99.90
2019-03-04T04:18:04.996Z,99.90
2019-03-04T04:20:34.479Z,99.90
2019-03-04T04:23:03.948Z,99.90
2019-03-04T04:25:33.402Z,99.90
2019-03-04T04:28:04.520Z,99.90
2019-03-04T04:30:35.864Z,99.90
2019-03-04T04:33:05.337Z,99.90
2019-03-04T04:35:34.791Z,99.90
2019-03-04T04:38:05.346Z,99.90
2019-03-04T04:40:34.819Z,99.90
2019-03-04T04:43:04.299Z,99.90
2019-03-04T04:45:33.743Z,99.90
2019-03-04T04:48:03.223Z,99.90
2019-03-04T04:50:33.351Z,99.80
2019-03-04T04:53:02.829Z,99.80
2019-03-04T04:55:32.308Z,99.70
2019-03-04T04:58:01.780Z,99.10
2019-03-04T05:00:32.329Z,98.70
2019-03-04T05:03:01.867Z,98.50
2019-03-04T05:05:31.315Z,98.30
2019-03-04T05:08:00.790Z,98.00
2019-03-04T05:10:30.323Z,97.80
2019-03-04T05:12:59.811Z,97.90
2019-03-04T05:15:29.355Z,97.00
2019-03-04T05:17:58.871Z,96.90
2019-03-04T05:20:28.608Z,97.00
2019-03-04T05:22:58.079Z,96.90
2019-03-04T05:25:27.526Z,96.70
2019-03-04T05:27:57.013Z,96.50
2019-03-04T05:30:26.458Z,96.50
2019-03-04T05:32:55.935Z,96.50
2019-03-04T05:35:25.396Z,96.50
2019-03-04T05:37:54.880Z,96.50
2019-03-04T05:40:25.411Z,96.80
2019-03-04T05:42:54.887Z,96.40
2019-03-04T05:45:24.345Z,96.50
2019-03-04T05:47:53.823Z,96.50
2019-03-04T05:50:26.736Z,96.90
2019-03-04T05:52:56.177Z,96.90
2019-03-04T05:55:25.649Z,96.70
2019-03-04T05:57:55.119Z,96.90
2019-03-04T06:00:26.214Z,97.30
2019-03-04T06:02:58.233Z,96.90
2019-03-04T06:05:27.691Z,96.90
2019-03-04T06:08:04.923Z,96.40
2019-03-04T06:10:34.372Z,96.40
2019-03-04T06:13:03.875Z,95.80
2019-03-04T06:15:33.328Z,95.80
2019-03-04T06:18:02.823Z,95.40
2019-03-04T06:20:32.275Z,95.20
2019-03-04T06:23:01.747Z,95.30
2019-03-04T06:25:31.211Z,95.20
2019-03-04T06:28:00.683Z,95.10
2019-03-04T06:30:31.195Z,94.60
2019-03-04T06:33:00.651Z,95.00
2019-03-04T06:35:30.144Z,94.80
2019-03-04T06:37:59.614Z,95.30
2019-03-04T06:40:29.093Z,95.40
2019-03-04T06:42:58.567Z,95.20
2019-03-04T06:45:28.072Z,95.10
2019-03-04T06:47:57.543Z,95.10
2019-03-04T06:50:47.612Z,95.30
2019-03-04T06:53:23.161Z,95.00
2019-03-04T06:56:30.803Z,95.40
2019-03-04T06:59:12.311Z,95.60
2019-03-04T07:01:48.023Z,95.60
2019-03-04T07:04:35.537Z,95.40
2019-03-04T07:07:04.996Z,95.60
2019-03-04T07:09:34.472Z,95.60
2019-03-04T07:12:04.267Z,95.40
2019-03-04T07:14:33.762Z,95.80
2019-03-04T07:17:03.216Z,95.10
2019-03-04T07:19:32.687Z,95.30
2019-03-04T07:22:02.149Z,95.40
2019-03-04T07:24:31.627Z,95.50
2019-03-04T07:27:01.083Z,95.10
2019-03-04T07:29:30.555Z,95.70
2019-03-04T07:32:00.007Z,96.70
2019-03-04T07:34:29.487Z,99.70
2019-03-04T07:36:58.954Z,99.90
2019-03-04T07:39:28.416Z,99.90
2019-03-04T07:41:57.867Z,99.90
2019-03-04T07:44:27.431Z,99.90
2019-03-04T07:46:56.875Z,99.90
2019-03-04T07:49:26.347Z,99.90
2019-03-04T07:51:55.793Z,99.90
2019-03-04T07:54:25.263Z,99.90
2019-03-04T07:56:54.714Z,99.90
2019-03-04T07:59:25.279Z,99.90
2019-03-04T08:01:54.776Z,99.90
2019-03-04T08:04:24.248Z,99.90
2019-03-04T08:07:03.401Z,99.90
2019-03-04T08:09:57.335Z,99.90
2019-03-04T08:12:49.116Z,99.90
2019-03-04T08:15:19.656Z,99.90
2019-03-04T08:17:49.200Z,99.90
2019-03-04T08:20:18.690Z,99.90
2019-03-04T08:22:48.179Z,99.90
2019-03-04T08:25:17.671Z,99.90
2019-03-04T08:27:47.185Z,99.90
2019-03-04T08:30:18.521Z,99.90
2019-03-04T08:32:48.033Z,99.90
2019-03-04T08:35:17.571Z,99.90
2019-03-04T08:37:47.024Z,99.90
2019-03-04T08:40:16.962Z,99.90
2019-03-04T08:42:46.424Z,99.90
2019-03-04T08:45:19.922Z,99.90
2019-03-04T08:47:49.359Z,99.90
2019-03-04T08:50:19.104Z,99.90
2019-03-04T08:52:48.554Z,99.90
2019-03-04T08:55:18.396Z,99.90
2019-03-04T08:57:47.865Z,99.90
2019-03-04T09:00:20.140Z,99.90
2019-03-04T09:02:49.591Z,99.90
2019-03-04T09:05:19.094Z,99.90
2019-03-04T09:07:48.603Z,99.90
2019-03-04T09:10:35.181Z,99.90
2019-03-04T09:13:04.868Z,99.90
2019-03-04T09:15:34.368Z,99.80
2019-03-04T09:18:03.879Z,99.40
2019-03-04T09:20:33.444Z,99.20
2019-03-04T09:23:02.912Z,98.70
2019-03-04T09:25:38.340Z,98.60
2019-03-04T09:28:07.852Z,96.40
2019-03-04T09:30:37.330Z,96.80
2019-03-04T09:33:06.877Z,96.40
2019-03-04T09:35:36.371Z,97.00
2019-03-04T09:38:06.484Z,96.80
2019-03-04T09:40:36.725Z,96.40
2019-03-04T09:43:07.235Z,96.70
2019-03-04T09:45:39.079Z,97.20
2019-03-04T09:48:07.940Z,97.40
2019-03-04T09:50:37.412Z,95.90
2019-03-04T09:53:06.883Z,96.40
2019-03-04T09:55:36.335Z,96.70
2019-03-04T09:58:07.356Z,96.80
2019-03-04T10:00:45.637Z,95.90
2019-03-04T10:03:27.223Z,95.30
2019-03-04T10:05:59.795Z,95.00
2019-03-04T10:08:34.884Z,95.10
2019-03-04T10:11:30.103Z,94.20
2019-03-04T10:14:08.244Z,94.10
2019-03-04T10:16:43.571Z,94.00
2019-03-04T10:19:37.312Z,93.10
2019-03-04T10:22:29.380Z,93.10
2019-03-04T10:25:07.627Z,94.00
2019-03-04T10:27:40.186Z,93.20
2019-03-04T10:30:36.940Z,93.90
2019-03-04T10:33:26.127Z,93.40
2019-03-04T10:36:07.262Z,93.80
2019-03-04T10:39:14.830Z,92.70
2019-03-04T10:41:56.490Z,92.00
2019-03-04T10:44:43.463Z,91.20
2019-03-04T10:47:12.951Z,91.20
2019-03-04T10:49:42.407Z,90.70
2019-03-04T10:52:11.884Z,90.70
2019-03-04T10:54:41.344Z,90.60
2019-03-04T10:57:10.824Z,90.90
2019-03-04T10:59:40.275Z,91.20
2019-03-04T11:02:09.917Z,91.80
2019-03-04T11:04:39.441Z,92.30
2019-03-04T11:07:08.923Z,95.40
2019-03-04T11:09:38.404Z,99.00
2019-03-04T11:12:07.892Z,99.90
2019-03-04T11:14:37.340Z,99.90
2019-03-04T11:17:06.864Z,99.90
2019-03-04T11:19:36.340Z,99.90
2019-03-04T11:22:06.009Z,99.90
2019-03-04T11:24:35.490Z,99.90
2019-03-04T11:27:05.175Z,99.90
2019-03-04T11:29:34.719Z,99.90
2019-03-04T11:32:04.311Z,99.90
2019-03-04T11:34:35.154Z,99.90
2019-03-04T11:37:04.735Z,99.90
2019-03-04T11:39:35.849Z,99.90
2019-03-04T11:42:05.294Z,99.90
2019-03-04T11:44:34.844Z,99.90
2019-03-04T11:47:05.362Z,99.90
2019-03-04T11:49:34.835Z,99.90
2019-03-04T11:52:04.350Z,99.90
2019-03-04T11:54:33.890Z,99.90
2019-03-04T11:57:03.489Z,99.90
2019-03-04T11:59:33.049Z,99.90
2019-03-04T12:02:02.521Z,99.90
2019-03-04T12:04:31.959Z,99.90
2019-03-04T12:07:01.432Z,99.90
2019-03-04T12:09:30.907Z,99.90
2019-03-04T12:12:00.369Z,99.90
2019-03-04T12:14:29.832Z,99.90
2019-03-04T12:16:59.298Z,99.90
2019-03-04T12:19:28.932Z,99.90
2019-03-04T12:22:00.254Z,99.90
2019-03-04T12:24:29.820Z,99.90
2019-03-04T12:26:59.267Z,99.90
2019-03-04T12:29:28.735Z,99.90
2019-03-04T12:32:02.804Z,99.90
2019-03-04T12:34:32.298Z,99.90
2019-03-04T12:37:01.815Z,99.90
2019-03-04T12:39:31.360Z,99.90
2019-03-04T12:42:00.839Z,99.90
2019-03-04T12:44:31.507Z,99.90
2019-03-04T12:47:00.952Z,99.90
2019-03-04T12:49:30.420Z,99.90
2019-03-04T12:51:59.878Z,99.90
2019-03-04T12:54:29.368Z,99.90
2019-03-04T12:56:58.811Z,99.90
2019-03-04T12:59:28.283Z,99.90
2019-03-04T13:01:57.762Z,99.90
2019-03-04T13:04:27.228Z,99.90
2019-03-04T13:06:56.671Z,99.90
2019-03-04T13:09:26.159Z,99.90
2019-03-04T13:11:56.273Z,99.90
2019-03-04T13:14:25.750Z,99.90
2019-03-04T13:16:55.195Z,99.90
2019-03-04T13:19:24.666Z,99.90
2019-03-04T13:21:54.107Z,99.90
2019-03-04T13:24:23.588Z,99.90
2019-03-04T13:26:53.043Z,99.90
2019-03-04T13:29:22.515Z,99.90
2019-03-04T13:31:51.983Z,99.90
2019-03-04T13:34:21.451Z,99.90
2019-03-04T13:36:50.899Z,99.90
2019-03-04T13:39:20.371Z,99.90
2019-03-04T13:41:49.810Z,99.90
2019-03-04T13:44:19.291Z,99.90
2019-03-04T13:46:48.735Z,99.90
2019-03-04T13:49:18.205Z,99.90
2019-03-04T13:51:47.929Z,99.90
2019-03-04T13:54:17.396Z,99.90
2019-03-04T13:56:46.848Z,99.90
2019-03-04T13:59:17.405Z,99.90
2019-03-04T14:01:46.866Z,99.90
2019-03-04T14:04:16.314Z,99.90
2019-03-04T14:06:45.789Z,99.90
2019-03-04T14:09:16.679Z,99.90
2019-03-04T14:11:46.175Z,99.90
2019-03-04T14:14:15.620Z,99.90
2019-03-04T14:16:45.087Z,99.90
2019-03-04T14:19:14.536Z,99.90
2019-03-04T14:21:44.007Z,99.90
2019-03-04T14:24:13.527Z,99.90
2019-03-04T14:26:43.008Z,99.90
2019-03-04T14:29:12.476Z,99.90
2019-03-04T14:31:41.949Z,99.90
2019-03-04T14:34:11.395Z,99.90
2019-03-04T14:36:40.891Z,99.90
2019-03-04T14:39:13.445Z,99.90
2019-03-04T14:41:42.916Z,99.90
2019-03-04T14:44:12.374Z,99.90
2019-03-04T14:46:41.839Z,99.70
2019-03-04T14:49:11.290Z,99.70
2019-03-04T14:51:40.784Z,98.90
2019-03-04T14:54:10.232Z,99.00
2019-03-04T14:56:39.706Z,98.00
2019-03-04T14:59:11.115Z,98.60
2019-03-04T15:01:40.539Z,99.10
2019-03-04T15:04:09.975Z,98.60
2019-03-04T15:06:39.477Z,98.90
2019-03-04T15:09:11.131Z,99.00
2019-03-04T15:11:40.874Z,98.30
2019-03-04T15:14:10.316Z,98.10
2019-03-04T15:16:39.796Z,98.10
2019-03-04T15:19:09.252Z,99.10
2019-03-04T15:21:39.089Z,98.90
2019-03-04T15:24:08.532Z,99.00
2019-03-04T15:26:42.965Z,98.50
2019-03-04T15:29:09.139Z,98.80
2019-03-04T15:31:38.620Z,98.80
2019-03-04T15:34:08.092Z,98.70
2019-03-04T15:36:37.586Z,97.70
2019-03-04T15:39:10.485Z,97.80
2019-03-04T15:41:40.540Z,97.60
2019-03-04T15:44:10.151Z,97.80
2019-03-04T15:46:39.619Z,97.50
2019-03-04T15:49:09.068Z,97.80
2019-03-04T15:51:38.602Z,97.80
2019-03-04T15:54:08.071Z,98.00
2019-03-04T15:56:37.607Z,98.60
2019-03-04T15:59:07.195Z,98.40
2019-03-04T16:01:36.667Z,97.40
2019-03-04T16:04:06.107Z,98.10
2019-03-04T16:06:35.607Z,97.00
2019-03-04T16:09:08.151Z,97.30
2019-03-04T16:11:38.059Z,96.70
2019-03-04T16:14:07.508Z,96.50
2019-03-04T16:16:37.051Z,96.00
2019-03-04T16:19:06.509Z,96.40
2019-03-04T16:21:36.007Z,95.80
2019-03-04T16:24:06.023Z,95.90
2019-03-04T16:26:35.567Z,96.20
2019-03-04T16:29:05.110Z,96.20
2019-03-04T16:31:34.655Z,96.30
2019-03-04T16:34:04.195Z,96.60
2019-03-04T16:36:33.669Z,96.50
2019-03-04T16:39:04.591Z,97.30
2019-03-04T16:41:35.530Z,97.10
2019-03-04T16:44:05.059Z,97.00
2019-03-04T16:46:34.528Z,97.20
2019-03-04T16:49:03.987Z,97.40
2019-03-04T16:51:33.484Z,97.30
2019-03-04T16:54:06.678Z,97.30
2019-03-04T16:56:37.727Z,97.60
2019-03-04T16:59:07.200Z,98.30
2019-03-04T17:01:36.691Z,98.10
2019-03-04T17:04:06.143Z,98.30
2019-03-04T17:06:35.651Z,98.20
2019-03-04T17:09:08.181Z,98.50
2019-03-04T17:11:37.648Z,98.80
2019-03-04T17:14:07.191Z,98.80
2019-03-04T17:16:36.833Z,98.70
2019-03-04T17:19:06.911Z,99.30
2019-03-04T17:21:37.109Z,99.50
2019-03-04T17:24:06.906Z,99.40
2019-03-04T17:26:36.759Z,99.10
2019-03-04T17:29:06.168Z,99.70
2019-03-04T17:31:35.644Z,99.10
2019-03-04T17:34:05.115Z,98.80
2019-03-04T17:36:34.604Z,99.00
2019-03-04T17:39:04.988Z,98.90
2019-03-04T17:41:36.083Z,98.70
2019-03-04T17:44:05.670Z,98.70
2019-03-04T17:46:35.211Z,98.10
2019-03-04T17:49:04.663Z,98.20
2019-03-04T17:51:34.147Z,98.30
2019-03-04T17:54:03.663Z,99.00
2019-03-04T17:56:33.120Z,98.60
2019-03-04T17:59:03.539Z,98.70
2019-03-04T18:01:33.059Z,98.10
2019-03-04T18:04:02.631Z,98.10
2019-03-04T18:06:32.171Z,98.30
2019-03-04T18:09:01.638Z,98.50
2019-03-04T18:11:32.708Z,98.20
2019-03-04T18:14:02.189Z,98.00
2019-03-04T18:16:32.707Z,97.70
2019-03-04T18:19:02.182Z,97.90
2019-03-04T18:21:31.719Z,97.90
2019-03-04T18:24:01.260Z,97.70
2019-03-04T18:26:34.243Z,98.10
2019-03-04T18:29:06.859Z,98.00
2019-03-04T18:31:51.404Z,97.60
2019-03-04T18:34:40.570Z,97.60
2019-03-04T18:37:13.134Z,97.60
2019-03-04T18:39:54.523Z,97.90
2019-03-04T18:42:36.557Z,97.60
2019-03-04T18:45:24.327Z,97.70
2019-03-04T18:48:11.994Z,98.10
2019-03-04T18:50:41.529Z,98.30
2019-03-04T18:53:11.063Z,98.40
2019-03-04T18:55:40.531Z,98.40
2019-03-04T18:58:10.095Z,98.30
2019-03-04T19:00:39.737Z,97.80
2019-03-04T19:03:09.423Z,98.00
2019-03-04T19:05:39.071Z,98.10
2019-03-04T19:08:08.608Z,98.00
2019-03-04T19:10:38.130Z,98.20
2019-03-04T19:13:07.758Z,98.40
2019-03-04T19:15:37.214Z,98.30
2019-03-04T19:18:06.858Z,98.60
2019-03-04T19:20:36.407Z,98.30
2019-03-04T19:23:05.967Z,98.40
2019-03-04T19:25:35.505Z,98.70
2019-03-04T19:28:05.082Z,98.40
2019-03-04T19:30:34.631Z,98.20
2019-03-04T19:33:04.343Z,98.40
2019-03-04T19:35:34.981Z,98.70
2019-03-04T19:38:04.664Z,98.60
2019-03-04T19:40:34.647Z,98.50
2019-03-04T19:43:04.188Z,98.60
2019-03-04T19:45:33.651Z,98.40
2019-03-04T19:48:03.233Z,98.30
2019-03-04T19:50:32.839Z,98.40
2019-03-04T19:53:02.284Z,98.70
2019-03-04T19:55:31.831Z,98.50
2019-03-04T19:58:01.273Z,98.60
2019-03-04T20:00:32.965Z,98.80
2019-03-04T20:03:03.183Z,98.80
2019-03-04T20:05:34.823Z,98.90
2019-03-04T20:08:04.847Z,99.30
2019-03-04T20:10:34.456Z,99.10
2019-03-04T20:13:04.075Z,99.00
2019-03-04T20:15:35.875Z,98.70
2019-03-04T20:18:05.416Z,98.70
2019-03-04T20:20:35.151Z,98.50
2019-03-04T20:23:24.003Z,98.80
2019-03-04T20:25:54.389Z,98.40
2019-03-04T20:28:23.899Z,98.50
2019-03-04T20:30:53.469Z,98.50
2019-03-04T20:33:22.920Z,98.60
2019-03-04T20:35:52.554Z,98.60
2019-03-04T20:38:25.147Z,98.30
2019-03-04T20:40:54.691Z,98.40
2019-03-04T20:43:24.139Z,98.00
2019-03-04T20:45:53.703Z,98.00
2019-03-04T20:48:23.163Z,98.10
2019-03-04T20:50:52.623Z,97.40
2019-03-04T20:53:22.213Z,97.30
2019-03-04T20:55:51.685Z,97.40
2019-03-04T20:58:21.132Z,97.80
2019-03-04T21:00:50.843Z,98.00
2019-03-04T21:03:20.362Z,97.50
2019-03-04T21:05:49.921Z,97.50
2019-03-04T21:08:19.435Z,97.40
2019-03-04T21:10:50.991Z,97.70
2019-03-04T21:13:21.676Z,97.20
2019-03-04T21:15:51.651Z,96.70
2019-03-04T21:18:21.838Z,96.90
2019-03-04T21:20:51.543Z,96.90
2019-03-04T21:23:21.058Z,96.60
2019-03-04T21:25:59.723Z,96.40
2019-03-04T21:28:59.463Z,96.50
2019-03-04T21:31:48.816Z,97.00
2019-03-04T21:34:32.997Z,96.70
2019-03-04T21:37:05.572Z,96.60
2019-03-04T21:39:48.436Z,96.70
2019-03-04T21:42:30.539Z,96.50
2019-03-04T21:45:22.982Z,96.80
2019-03-04T21:48:08.746Z,97.70
2019-03-04T21:50:56.495Z,97.20
2019-03-04T21:53:39.499Z,97.50
2019-03-04T21:56:18.027Z,97.40
2019-03-04T21:58:47.553Z,97.20
2019-03-04T22:01:26.140Z,97.10
2019-03-04T22:03:55.714Z,97.20
2019-03-04T22:06:25.423Z,97.50
2019-03-04T22:08:54.935Z,97.50
2019-03-04T22:11:24.415Z,97.80
2019-03-04T22:13:53.947Z,97.90
2019-03-04T22:16:23.497Z,98.00
2019-03-04T22:18:52.940Z,98.10
2019-03-04T22:21:22.523Z,98.20
2019-03-04T22:23:52.000Z,98.40
2019-03-04T22:26:21.604Z,98.30
2019-03-04T22:28:51.067Z,98.70
2019-03-04T22:31:20.536Z,98.60
2019-03-04T22:33:50.022Z,99.10
2019-03-04T22:36:19.541Z,98.80
2019-03-04T22:38:49.079Z,98.80
2019-03-04T22:41:18.615Z,99.10
2019-03-04T22:43:48.071Z,99.30
2019-03-04T22:46:17.542Z,99.30
2019-03-04T22:48:47.086Z,99.30
2019-03-04T22:51:16.604Z,99.60
2019-03-04T22:53:46.087Z,99.60
2019-03-04T22:56:15.605Z,99.90
2019-03-04T22:58:45.107Z,99.90
2019-03-04T23:01:19.331Z,99.90
2019-03-04T23:03:50.019Z,99.90
2019-03-04T23:06:33.996Z,99.90
2019-03-04T23:09:05.009Z,99.90
2019-03-04T23:11:35.577Z,99.90
2019-03-04T23:14:10.964Z,99.90
2019-03-04T23:16:40.420Z,99.90
2019-03-04T23:19:09.967Z,99.90
2019-03-04T23:21:39.419Z,99.90
2019-03-04T23:24:08.903Z,99.90
2019-03-04T23:26:38.348Z,99.90
2019-03-04T23:29:07.820Z,99.90
2019-03-04T23:31:37.943Z,99.90
2019-03-04T23:34:08.082Z,99.90
2019-03-04T23:36:38.115Z,99.90
2019-03-04T23:39:09.031Z,99.90
2019-03-04T23:41:38.574Z,99.90
2019-03-04T23:44:08.047Z,99.90
2019-03-04T23:46:37.500Z,99.90
2019-03-04T23:49:07.395Z,99.90
2019-03-04T23:51:36.870Z,99.90
2019-03-04T23:54:06.342Z,99.90
2019-03-04T23:56:35.794Z,99.90
2019-03-04T23:59:06.358Z,99.90
